createdAt,value
2023-01-01T00:02:16.438Z,76.88
2023-01-01T00:04:43.306Z,75.60
2023-01-01T00:07:13.376Z,76.63
2023-01-01T00:09:58.546Z,81.28
2023-01-01T00:12:28.106Z,83.05
2023-01-01T00:14:57.763Z,73.50
2023-01-01T00:17:27.535Z,78.68
2023-01-01T00:19:57.420Z,71.30
2023-01-01T00:25:23.028Z,80.65
2023-01-01T00:28:07.605Z,69.97
2023-01-01T00:30:39.938Z,69.65
2023-01-01T00:33:15.844Z,78.75
2023-01-01T00:35:55.237Z,75.25
2023-01-01T00:38:38.098Z,70.40
2023-01-01T00:41:21.133Z,73.93
2023-01-01T00:44:05.239Z,78.15
2023-01-01T00:46:39.143Z,71.72
2023-01-01T00:49:11.340Z,71.40
2023-01-01T00:51:51.219Z,66.37
2023-01-01T00:54:32.343Z,75.80
2023-01-01T00:57:17.069Z,73.78
2023-01-01T00:59:55.530Z,79.32
2023-01-01T01:02:35.366Z,71.15
2023-01-01T01:05:14.591Z,75.53
2023-01-01T01:07:55.339Z,71.13
2023-01-01T01:10:33.554Z,67.40
2023-01-01T01:13:00.275Z,72.05
2023-01-01T01:15:27.315Z,75.65
2023-01-01T01:17:54.072Z,72.38
2023-01-01T01:20:20.867Z,66.20
2023-01-01T01:22:47.642Z,63.58
2023-01-01T01:25:14.572Z,71.93
2023-01-01T01:27:41.385Z,68.07
2023-01-01T01:30:09.774Z,63.72
2023-01-01T01:32:36.504Z,61.45
2023-01-01T01:35:03.327Z,65.57
2023-01-01T01:37:30.040Z,70.65
2023-01-01T01:39:56.793Z,61.50
2023-01-01T01:42:23.507Z,66.00
2023-01-01T01:44:53.088Z,62.15
2023-01-01T01:47:38.464Z,54.70
2023-01-01T01:50:11.323Z,57.10
2023-01-01T01:52:39.327Z,61.55
2023-01-01T01:55:07.064Z,57.55
2023-01-01T01:57:33.893Z,54.10
2023-01-01T02:00:02.548Z,54.00
2023-01-01T02:02:51.542Z,55.70
2023-01-01T02:05:19.091Z,54.10
2023-01-01T02:07:45.862Z,52.90
2023-01-01T02:10:12.763Z,52.72
2023-01-01T02:12:39.565Z,54.13
2023-01-01T02:15:07.487Z,50.53
2023-01-01T02:17:44.826Z,49.38
2023-01-01T02:20:39.863Z,49.35
2023-01-01T02:23:28.398Z,51.85
2023-01-01T02:25:55.127Z,47.85
2023-01-01T02:28:43.419Z,49.42
2023-01-01T02:31:11.883Z,44.80
2023-01-01T02:33:38.868Z,52.13
2023-01-01T02:36:05.772Z,50.08
2023-01-01T02:38:37.619Z,43.67
2023-01-01T02:41:06.832Z,44.50
2023-01-01T02:43:33.636Z,43.10
2023-01-01T02:46:00.444Z,39.92
2023-01-01T02:48:49.389Z,42.97
2023-01-01T02:51:53.491Z,43.15
2023-01-01T02:54:24.752Z,46.15
2023-01-01T02:56:58.227Z,41.33
2023-01-01T02:59:56.672Z,38.08
2023-01-01T03:02:31.317Z,35.72
2023-01-01T03:05:24.293Z,32.33
2023-01-01T03:08:15.877Z,35.28
2023-01-01T03:10:55.404Z,34.42
2023-01-01T03:13:24.988Z,32.67
2023-01-01T03:16:01.116Z,36.13
2023-01-01T03:18:52.124Z,33.20
2023-01-01T03:23:49.863Z,32.72
2023-01-01T03:26:16.921Z,35.75
2023-01-01T03:28:51.950Z,33.28
2023-01-01T03:31:19.924Z,35.20
2023-01-01T03:33:52.604Z,35.00
2023-01-01T03:36:24.476Z,33.33
2023-01-01T03:38:52.825Z,31.98
2023-01-01T03:41:26.512Z,37.03
2023-01-01T03:44:07.668Z,34.53
2023-01-01T03:46:35.415Z,30.88
2023-01-01T03:49:04.482Z,28.88
2023-01-01T03:51:54.683Z,31.35
2023-01-01T03:54:59.128Z,29.42
2023-01-01T03:58:04.704Z,27.30
2023-01-01T04:00:43.260Z,29.30
2023-01-01T04:03:22.206Z,33.22
2023-01-01T04:05:48.979Z,31.15
2023-01-01T04:08:15.991Z,28.63
2023-01-01T04:10:44.896Z,26.17
2023-01-01T04:13:11.609Z,30.40
2023-01-01T04:15:38.344Z,28.80
2023-01-01T04:18:05.136Z,29.02
2023-01-01T04:20:31.923Z,29.67
2023-01-01T04:22:59.618Z,34.17
2023-01-01T04:25:26.672Z,27.85
2023-01-01T04:27:53.422Z,26.05
2023-01-01T04:30:20.276Z,29.25
2023-01-01T04:32:47.140Z,25.92
2023-01-01T04:35:14.364Z,27.90
2023-01-01T04:37:42.211Z,27.58
2023-01-01T04:40:09.810Z,25.45
2023-01-01T04:42:36.592Z,26.40
2023-01-01T04:45:04.001Z,23.50
2023-01-01T04:47:30.827Z,29.65
2023-01-01T04:49:57.568Z,28.30
2023-01-01T04:52:24.344Z,25.90
2023-01-01T04:54:51.063Z,22.88
2023-01-01T04:57:17.852Z,25.73
2023-01-01T04:59:44.651Z,26.60
2023-01-01T05:02:11.517Z,29.23
2023-01-01T05:04:38.333Z,25.98
2023-01-01T05:07:05.051Z,23.25
2023-01-01T05:09:31.792Z,22.65
2023-01-01T05:11:58.541Z,23.33
2023-01-01T05:14:25.273Z,24.85
2023-01-01T05:16:52.886Z,23.60
2023-01-01T05:19:19.723Z,24.85
2023-01-01T05:21:46.618Z,23.92
2023-01-01T05:24:13.557Z,23.15
2023-01-01T05:26:44.009Z,21.63
2023-01-01T05:29:15.960Z,21.17
2023-01-01T05:34:10.689Z,23.98
2023-01-01T05:36:39.009Z,23.95
2023-01-01T05:39:07.140Z,23.80
2023-01-01T05:41:37.082Z,24.05
2023-01-01T05:44:05.318Z,23.10
2023-01-01T05:46:32.063Z,22.88
2023-01-01T05:48:58.878Z,24.45
2023-01-01T05:51:26.835Z,22.98
2023-01-01T05:53:53.957Z,22.83
2023-01-01T05:56:20.767Z,23.38
2023-01-01T05:58:47.652Z,23.13
2023-01-01T06:01:25.660Z,23.20
2023-01-01T06:03:56.161Z,24.05
2023-01-01T06:06:25.253Z,22.45
2023-01-01T06:08:53.231Z,25.50
2023-01-01T06:11:20.114Z,23.90
2023-01-01T06:13:46.900Z,19.85
2023-01-01T06:16:13.997Z,21.48
2023-01-01T06:18:41.031Z,24.05
2023-01-01T06:21:08.812Z,23.65
2023-01-01T06:23:35.656Z,23.65
2023-01-01T06:26:07.151Z,23.00
2023-01-01T06:28:33.857Z,21.50
2023-01-01T06:31:02.016Z,20.88
2023-01-01T06:33:29.585Z,20.38
2023-01-01T06:35:56.455Z,21.77
2023-01-01T06:38:23.204Z,20.35
2023-01-01T06:41:01.129Z,22.95
2023-01-01T06:43:29.495Z,18.52
2023-01-01T06:46:07.609Z,20.80
2023-01-01T06:48:36.071Z,19.63
2023-01-01T06:51:07.066Z,21.42
2023-01-01T06:53:33.865Z,21.77
2023-01-01T06:56:00.617Z,19.10
2023-01-01T06:58:27.389Z,19.98
2023-01-01T07:00:54.112Z,21.48
2023-01-01T07:03:20.869Z,23.67
2023-01-01T07:05:47.610Z,21.58
2023-01-01T07:08:14.357Z,22.13
2023-01-01T07:10:41.084Z,21.50
2023-01-01T07:13:07.825Z,21.67
2023-01-01T07:15:34.751Z,20.60
2023-01-01T07:18:01.483Z,21.40
2023-01-01T07:20:28.212Z,22.52
2023-01-01T07:22:55.022Z,21.52
2023-01-01T07:25:21.835Z,22.23
2023-01-01T07:27:48.652Z,21.15
2023-01-01T07:30:15.556Z,20.95
2023-01-01T07:32:42.305Z,20.13
2023-01-01T07:35:09.447Z,20.25
2023-01-01T07:37:36.454Z,20.27
2023-01-01T07:40:03.245Z,18.17
2023-01-01T07:42:30.079Z,18.50
2023-01-01T07:44:56.819Z,20.60
2023-01-01T07:47:24.990Z,18.23
2023-01-01T07:49:52.052Z,22.08
2023-01-01T07:52:19.022Z,20.60
2023-01-01T07:54:45.878Z,18.85
2023-01-01T07:57:12.628Z,20.63
2023-01-01T07:59:39.450Z,18.83
2023-01-01T08:02:06.375Z,23.63
2023-01-01T08:04:33.181Z,22.42
2023-01-01T08:07:02.808Z,18.40
2023-01-01T08:09:29.652Z,19.67
2023-01-01T08:11:59.068Z,20.13
2023-01-01T08:14:28.756Z,19.60
2023-01-01T08:16:55.617Z,20.10
2023-01-01T08:19:22.472Z,18.90
2023-01-01T08:21:49.349Z,19.80
2023-01-01T08:24:16.148Z,21.98
2023-01-01T08:26:42.904Z,19.25
2023-01-01T08:29:10.094Z,18.88
2023-01-01T08:31:36.930Z,18.48
2023-01-01T08:34:03.712Z,21.33
2023-01-01T08:36:30.534Z,23.13
2023-01-01T08:38:57.341Z,20.02
2023-01-01T08:41:24.119Z,20.20
2023-01-01T08:43:50.892Z,20.42
2023-01-01T08:46:17.787Z,20.13
2023-01-01T08:48:44.756Z,18.88
2023-01-01T08:51:11.526Z,21.13
2023-01-01T08:53:38.310Z,21.88
2023-01-01T08:56:06.833Z,21.30
2023-01-01T08:58:34.380Z,18.48
2023-01-01T09:01:01.417Z,20.42
2023-01-01T09:03:28.511Z,20.17
2023-01-01T09:05:55.500Z,22.25
2023-01-01T09:08:22.332Z,25.75
2023-01-01T09:10:49.550Z,28.10
2023-01-01T09:13:17.960Z,22.80
2023-01-01T09:15:44.800Z,21.88
2023-01-01T09:18:11.850Z,21.95
2023-01-01T09:20:38.784Z,22.48
2023-01-01T09:23:06.319Z,23.98
2023-01-01T09:25:33.637Z,24.67
2023-01-01T09:28:01.283Z,24.17
2023-01-01T09:30:28.836Z,27.20
2023-01-01T09:32:55.774Z,26.13
2023-01-01T09:35:22.730Z,22.48
2023-01-01T09:37:49.579Z,27.20
2023-01-01T09:40:55.880Z,27.60
2023-01-01T09:43:45.073Z,25.13
2023-01-01T09:46:11.873Z,24.40
2023-01-01T09:48:41.177Z,25.92
2023-01-01T09:51:13.395Z,24.63
2023-01-01T09:53:47.429Z,25.63
2023-01-01T09:56:17.714Z,23.10
2023-01-01T09:58:44.494Z,21.55
2023-01-01T10:01:44.911Z,23.48
2023-01-01T10:04:29.934Z,20.67
2023-01-01T10:07:05.786Z,19.67
2023-01-01T10:09:59.891Z,19.58
2023-01-01T10:12:56.213Z,21.25
2023-01-01T10:15:25.528Z,20.35
2023-01-01T10:17:54.676Z,19.35
2023-01-01T10:20:25.646Z,18.42
2023-01-01T10:23:12.369Z,18.30
2023-01-01T10:25:39.158Z,18.40
2023-01-01T10:28:15.520Z,17.38
2023-01-01T10:30:42.412Z,19.67
2023-01-01T10:33:13.710Z,16.38
2023-01-01T10:35:41.159Z,18.05
2023-01-01T10:38:08.165Z,16.98
2023-01-01T10:40:34.896Z,17.10
2023-01-01T10:43:02.783Z,19.67
2023-01-01T10:45:34.399Z,18.23
2023-01-01T10:48:22.987Z,17.90
2023-01-01T10:50:52.825Z,18.60
2023-01-01T10:53:39.654Z,20.98
2023-01-01T10:56:17.419Z,19.83
2023-01-01T10:58:58.606Z,20.20
2023-01-01T11:01:27.429Z,19.35
2023-01-01T11:04:01.201Z,18.88
2023-01-01T11:06:34.582Z,18.35
2023-01-01T11:09:26.626Z,17.63
2023-01-01T11:12:05.682Z,18.65
2023-01-01T11:14:42.483Z,17.55
2023-01-01T11:17:09.277Z,17.45
2023-01-01T11:19:44.415Z,18.02
2023-01-01T11:22:52.999Z,18.63
2023-01-01T11:25:29.680Z,17.20
2023-01-01T11:28:19.441Z,17.27
2023-01-01T11:31:02.888Z,17.52
2023-01-01T11:33:31.154Z,17.70
2023-01-01T11:35:58.091Z,18.20
2023-01-01T11:38:29.807Z,17.27
2023-01-01T11:41:01.426Z,16.42
2023-01-01T11:43:29.041Z,16.70
2023-01-01T11:45:56.027Z,15.27
2023-01-01T11:48:31.757Z,14.18
2023-01-01T11:51:01.121Z,13.60
2023-01-01T11:53:32.809Z,14.10
2023-01-01T11:56:20.795Z,14.30
2023-01-01T11:59:07.021Z,16.80
2023-01-01T12:01:53.648Z,15.27
2023-01-01T12:04:30.226Z,17.17
2023-01-01T12:07:18.423Z,15.48
2023-01-01T12:10:02.310Z,18.48
2023-01-01T12:12:36.810Z,14.98
2023-01-01T12:15:22.385Z,14.00
2023-01-01T12:18:04.662Z,15.25
2023-01-01T12:20:40.285Z,15.15
2023-01-01T12:23:08.404Z,14.45
2023-01-01T12:25:43.456Z,15.35
2023-01-01T12:28:16.502Z,15.88
2023-01-01T12:33:19.260Z,17.55
2023-01-01T12:36:11.581Z,16.08
2023-01-01T12:38:52.529Z,16.10
2023-01-01T12:41:31.165Z,14.80
2023-01-01T12:44:22.905Z,17.13
2023-01-01T12:47:35.131Z,16.35
2023-01-01T12:50:10.587Z,15.20
2023-01-01T12:52:57.237Z,15.68
2023-01-01T12:55:25.780Z,15.23
2023-01-01T12:58:13.258Z,15.48
2023-01-01T13:00:41.094Z,16.15
2023-01-01T13:03:49.824Z,15.63
2023-01-01T13:06:20.165Z,15.15
2023-01-01T13:08:56.356Z,16.88
2023-01-01T13:11:25.417Z,14.57
2023-01-01T13:13:52.447Z,16.63
2023-01-01T13:16:33.604Z,16.30
2023-01-01T13:19:02.843Z,16.17
2023-01-01T13:21:30.101Z,16.67
2023-01-01T13:24:03.230Z,15.85
2023-01-01T13:28:59.870Z,14.38
2023-01-01T13:31:38.951Z,15.60
2023-01-01T13:34:30.991Z,17.75
2023-01-01T13:37:14.002Z,16.75
2023-01-01T13:40:02.958Z,18.17
2023-01-01T13:42:57.790Z,18.50
2023-01-01T13:46:10.087Z,16.58
2023-01-01T13:48:37.879Z,17.90
2023-01-01T13:51:10.530Z,18.70
2023-01-01T13:53:46.163Z,19.48
2023-01-01T13:56:31.633Z,19.33
2023-01-01T13:59:16.116Z,17.13
2023-01-01T14:02:18.294Z,19.92
2023-01-01T14:04:55.672Z,19.02
2023-01-01T14:07:53.462Z,18.95
2023-01-01T14:10:28.206Z,19.08
2023-01-01T14:13:10.934Z,19.13
2023-01-01T14:15:47.160Z,21.00
2023-01-01T14:18:15.652Z,20.50
2023-01-01T14:20:43.935Z,19.73
2023-01-01T14:23:24.952Z,20.65
2023-01-01T14:25:51.687Z,20.35
2023-01-01T14:28:22.369Z,20.15
2023-01-01T14:30:49.208Z,19.58
2023-01-01T14:33:29.517Z,20.30
2023-01-01T14:35:57.886Z,19.90
2023-01-01T14:38:28.042Z,22.42
2023-01-01T14:41:00.932Z,22.52
2023-01-01T14:43:27.728Z,24.10
2023-01-01T14:45:54.504Z,22.50
2023-01-01T14:48:28.183Z,22.58
2023-01-01T14:50:55.667Z,22.90
2023-01-01T14:53:25.247Z,23.98
2023-01-01T14:55:51.982Z,23.60
2023-01-01T14:58:26.982Z,22.02
2023-01-01T15:00:53.849Z,22.00
2023-01-01T15:03:22.565Z,23.08
2023-01-01T15:06:00.212Z,22.08
2023-01-01T15:08:27.144Z,22.35
2023-01-01T15:10:54.542Z,21.77
2023-01-01T15:13:26.101Z,24.13
2023-01-01T15:15:54.160Z,25.40
2023-01-01T15:18:41.499Z,24.13
2023-01-01T15:21:10.982Z,25.98
2023-01-01T15:23:37.786Z,26.90
2023-01-01T15:26:09.672Z,25.23
2023-01-01T15:28:38.377Z,27.65
2023-01-01T15:31:05.504Z,27.10
2023-01-01T15:33:33.376Z,28.25
2023-01-01T15:36:04.038Z,26.83
2023-01-01T15:38:34.681Z,27.58
2023-01-01T15:41:22.727Z,25.30
2023-01-01T15:43:49.455Z,27.90
2023-01-01T15:46:32.057Z,30.17
2023-01-01T15:48:59.335Z,29.17
2023-01-01T15:51:26.688Z,29.70
2023-01-01T15:54:04.841Z,27.25
2023-01-01T15:56:33.005Z,28.70
2023-01-01T15:59:09.452Z,30.83
2023-01-01T16:01:38.924Z,29.42
2023-01-01T16:04:27.994Z,28.42
2023-01-01T16:06:55.609Z,26.70
2023-01-01T16:09:22.632Z,27.65
2023-01-01T16:11:53.580Z,26.13
2023-01-01T16:14:20.446Z,27.65
2023-01-01T16:16:53.444Z,26.92
2023-01-01T16:19:20.264Z,27.05
2023-01-01T16:21:47.007Z,25.20
2023-01-01T16:24:17.280Z,27.88
2023-01-01T16:26:44.168Z,29.30
2023-01-01T16:29:10.915Z,26.52
2023-01-01T16:31:37.731Z,27.88
2023-01-01T16:34:05.229Z,29.65
2023-01-01T16:36:31.986Z,30.50
2023-01-01T16:38:59.047Z,29.05
2023-01-01T16:41:26.572Z,26.17
2023-01-01T16:43:53.427Z,27.10
2023-01-01T16:46:20.277Z,27.13
2023-01-01T16:48:47.055Z,30.05
2023-01-01T16:51:20.061Z,30.67
2023-01-01T16:53:47.203Z,27.35
2023-01-01T16:56:14.261Z,28.85
2023-01-01T16:58:50.423Z,29.83
2023-01-01T17:01:18.374Z,29.45
2023-01-01T17:03:45.273Z,28.40
2023-01-01T17:06:12.146Z,26.05
2023-01-01T17:08:39.059Z,27.42
2023-01-01T17:11:15.880Z,28.13
2023-01-01T17:13:43.508Z,28.02
2023-01-01T17:16:10.541Z,26.48
2023-01-01T17:19:13.278Z,25.98
2023-01-01T17:21:24.131Z,27.27
2023-01-01T17:23:51.015Z,26.27
2023-01-01T17:26:22.548Z,29.60
2023-01-01T17:28:55.039Z,30.75
2023-01-01T17:31:28.584Z,30.40
2023-01-01T17:33:55.607Z,29.13
2023-01-01T17:36:22.398Z,29.63
2023-01-01T17:38:49.165Z,29.38
2023-01-01T17:41:16.866Z,27.67
2023-01-01T17:43:48.706Z,25.67
2023-01-01T17:46:26.232Z,29.42
2023-01-01T17:48:53.664Z,28.30
2023-01-01T17:51:20.606Z,25.75
2023-01-01T17:53:47.567Z,29.52
2023-01-01T17:56:15.284Z,28.30
2023-01-01T17:58:43.631Z,29.83
2023-01-01T18:01:25.110Z,29.45
2023-01-01T18:04:12.943Z,27.70
2023-01-01T18:06:42.395Z,27.88
2023-01-01T18:09:11.743Z,27.58
2023-01-01T18:11:38.546Z,29.33
2023-01-01T18:14:05.438Z,30.60
2023-01-01T18:16:35.464Z,30.02
2023-01-01T18:19:04.081Z,28.45
2023-01-01T18:21:31.155Z,28.65
2023-01-01T18:23:57.879Z,27.08
2023-01-01T18:26:26.352Z,28.33
2023-01-01T18:28:53.932Z,32.70
2023-01-01T18:31:20.827Z,27.77
2023-01-01T18:33:47.716Z,27.75
2023-01-01T18:36:19.748Z,30.80
2023-01-01T18:38:59.061Z,33.70
2023-01-01T18:41:32.613Z,31.98
2023-01-01T18:44:00.192Z,31.80
2023-01-01T18:46:30.674Z,29.35
2023-01-01T18:48:59.382Z,29.10
2023-01-01T18:51:26.554Z,28.83
2023-01-01T18:53:57.888Z,25.52
2023-01-01T18:56:24.631Z,25.63
2023-01-01T18:58:51.439Z,27.25
2023-01-01T19:01:20.185Z,28.67
2023-01-01T19:03:49.117Z,29.95
2023-01-01T19:06:36.091Z,25.70
2023-01-01T19:09:08.764Z,26.60
2023-01-01T19:11:35.494Z,26.50
2023-01-01T19:14:05.692Z,26.13
2023-01-01T19:16:33.274Z,26.42
2023-01-01T19:19:14.626Z,27.73
2023-01-01T19:21:46.499Z,24.38
2023-01-01T19:24:27.406Z,25.92
2023-01-01T19:27:02.721Z,28.05
2023-01-01T19:29:30.062Z,28.15
2023-01-01T19:31:57.879Z,28.80
2023-01-01T19:34:24.799Z,24.95
2023-01-01T19:36:51.977Z,27.17
2023-01-01T19:39:19.314Z,26.55
2023-01-01T19:41:46.136Z,26.77
2023-01-01T19:44:12.912Z,25.00
2023-01-01T19:46:39.831Z,26.30
2023-01-01T19:49:06.642Z,26.38
2023-01-01T19:51:33.726Z,28.15
2023-01-01T19:54:00.787Z,30.48
2023-01-01T19:56:28.143Z,29.75
2023-01-01T19:58:54.951Z,30.17
2023-01-01T20:01:21.815Z,30.25
2023-01-01T20:03:54.603Z,27.80
2023-01-01T20:06:21.929Z,28.48
2023-01-01T20:08:48.938Z,27.63
2023-01-01T20:11:15.723Z,29.38
2023-01-01T20:13:42.609Z,27.77
2023-01-01T20:16:09.509Z,31.33
2023-01-01T20:18:36.507Z,28.35
2023-01-01T20:21:26.070Z,30.25
2023-01-01T20:23:53.378Z,29.75
2023-01-01T20:26:20.904Z,30.50
2023-01-01T20:29:06.348Z,28.48
2023-01-01T20:31:33.217Z,27.23
2023-01-01T20:33:59.975Z,28.50
2023-01-01T20:36:45.545Z,29.00
2023-01-01T20:39:12.362Z,28.73
2023-01-01T20:41:39.211Z,31.15
2023-01-01T20:44:06.015Z,27.92
2023-01-01T20:46:32.817Z,30.05
2023-01-01T20:48:59.624Z,50.45
2023-01-01T20:51:26.445Z,48.25
2023-01-01T20:53:53.157Z,46.00
2023-01-01T20:56:20.046Z,33.92
2023-01-01T20:58:50.322Z,33.42
2023-01-01T21:01:20.162Z,26.95
2023-01-01T21:03:47.123Z,27.38
2023-01-01T21:06:18.462Z,27.63
2023-01-01T21:08:48.727Z,25.75
2023-01-01T21:11:15.600Z,25.83
2023-01-01T21:13:44.433Z,27.38
2023-01-01T21:16:18.127Z,25.48
2023-01-01T21:18:45.359Z,25.67
2023-01-01T21:21:22.705Z,24.42
2023-01-01T21:23:49.936Z,23.17
2023-01-01T21:26:41.905Z,23.17
2023-01-01T21:29:13.590Z,24.80
2023-01-01T21:31:40.665Z,23.67
2023-01-01T21:34:30.759Z,26.00
2023-01-01T21:37:01.845Z,25.55
2023-01-01T21:39:30.387Z,24.40
2023-01-01T21:42:21.436Z,23.77
2023-01-01T21:44:48.278Z,24.65
2023-01-01T21:47:22.412Z,26.48
2023-01-01T21:49:49.413Z,24.75
2023-01-01T21:52:19.441Z,22.73
2023-01-01T21:54:48.293Z,23.92
2023-01-01T21:57:18.904Z,24.92
2023-01-01T21:59:48.983Z,21.55
2023-01-01T22:02:30.373Z,23.45
2023-01-01T22:04:57.273Z,23.70
2023-01-01T22:10:25.743Z,24.30
2023-01-01T22:12:59.420Z,20.98
2023-01-01T22:15:26.257Z,23.23
2023-01-01T22:18:16.255Z,26.92
2023-01-01T22:20:44.423Z,23.30
2023-01-01T22:23:34.862Z,27.13
2023-01-01T22:26:19.467Z,24.30
2023-01-01T22:28:46.897Z,23.52
2023-01-01T22:31:25.160Z,20.63
2023-01-01T22:33:52.392Z,26.00
2023-01-01T22:36:26.182Z,24.23
2023-01-01T22:38:58.354Z,24.90
2023-01-01T22:41:25.066Z,27.27
2023-01-01T22:43:52.584Z,24.75
2023-01-01T22:46:28.235Z,24.45
2023-01-01T22:49:10.749Z,22.08
2023-01-01T22:51:43.777Z,23.13
2023-01-01T22:56:37.424Z,25.77
2023-01-01T22:59:04.253Z,23.83
2023-01-01T23:01:30.974Z,23.40
2023-01-01T23:03:57.807Z,25.45
2023-01-01T23:06:24.542Z,23.77
2023-01-01T23:08:51.307Z,25.48
2023-01-01T23:11:18.350Z,22.98
2023-01-01T23:14:06.546Z,23.40
2023-01-01T23:16:33.492Z,23.02
2023-01-01T23:19:00.232Z,21.85
2023-01-01T23:21:27.514Z,24.40
2023-01-01T23:23:54.907Z,24.17
2023-01-01T23:26:21.666Z,24.35
2023-01-01T23:28:48.369Z,21.25
2023-01-01T23:31:19.615Z,21.88
2023-01-01T23:33:51.149Z,20.88
2023-01-01T23:36:17.939Z,23.02
2023-01-01T23:38:44.682Z,21.58
2023-01-01T23:41:11.424Z,20.40
2023-01-01T23:43:43.245Z,19.50
2023-01-01T23:46:14.393Z,21.73
2023-01-01T23:48:44.216Z,22.80
2023-01-01T23:51:11.096Z,19.83
2023-01-01T23:53:37.804Z,21.52
2023-01-01T23:56:04.834Z,22.95
2023-01-01T23:58:31.608Z,22.15
